createdAt,value
2019-03-20T00:01:48.776Z,9.13
2019-03-20T00:04:17.090Z,9.30
2019-03-20T00:06:45.125Z,9.73
2019-03-20T00:09:13.282Z,8.50
2019-03-20T00:11:41.354Z,9.75
2019-03-20T00:14:09.726Z,9.00
2019-03-20T00:16:37.966Z,9.53
2019-03-20T00:19:06.027Z,8.65
2019-03-20T00:21:34.156Z,9.00
2019-03-20T00:24:02.394Z,9.05
2019-03-20T00:26:30.376Z,9.05
2019-03-20T00:28:58.685Z,9.80
2019-03-20T00:31:27.046Z,8.78
2019-03-20T00:33:55.534Z,8.83
2019-03-20T00:36:22.471Z,9.63
2019-03-20T00:38:50.847Z,9.63
2019-03-20T00:41:18.874Z,8.98
2019-03-20T00:43:47.077Z,9.63
2019-03-20T00:46:15.003Z,9.83
2019-03-20T00:48:43.950Z,9.25
2019-03-20T00:51:12.233Z,9.78
2019-03-20T00:53:40.320Z,11.28
2019-03-20T00:56:08.624Z,9.73
2019-03-20T00:58:36.769Z,9.75
2019-03-20T01:01:03.954Z,9.75
2019-03-20T01:03:32.096Z,9.08
2019-03-20T01:06:00.064Z,9.83
2019-03-20T01:08:28.286Z,8.45
2019-03-20T01:10:56.772Z,8.55
2019-03-20T01:13:25.630Z,9.50
2019-03-20T01:15:54.314Z,9.35
2019-03-20T01:18:22.670Z,9.95
2019-03-20T01:20:52.203Z,9.55
2019-03-20T01:23:19.299Z,9.53
2019-03-20T01:25:48.208Z,10.78
2019-03-20T01:28:15.166Z,9.55
2019-03-20T01:30:43.294Z,9.88
2019-03-20T01:33:11.402Z,9.95
2019-03-20T01:35:39.676Z,9.78
2019-03-20T01:38:08.027Z,10.40
2019-03-20T01:40:36.258Z,10.82
2019-03-20T01:43:05.538Z,9.90
2019-03-20T01:45:33.906Z,9.30
2019-03-20T01:48:02.085Z,10.35
2019-03-20T01:50:30.192Z,10.75
2019-03-20T01:52:58.166Z,10.78
2019-03-20T01:55:26.353Z,12.53
2019-03-20T01:57:54.801Z,10.82
2019-03-20T02:00:23.133Z,11.70
2019-03-20T02:02:51.359Z,11.30
2019-03-20T02:05:18.495Z,11.03
2019-03-20T02:07:46.570Z,12.85
2019-03-20T02:10:14.731Z,11.30
2019-03-20T02:12:44.889Z,11.40
2019-03-20T02:15:13.355Z,11.57
2019-03-20T02:17:45.014Z,11.25
2019-03-20T02:20:14.504Z,11.20
2019-03-20T02:22:42.920Z,11.33
2019-03-20T02:25:12.446Z,12.20
2019-03-20T02:27:41.409Z,12.37
2019-03-20T02:30:11.640Z,11.68
2019-03-20T02:32:40.429Z,12.30
2019-03-20T02:35:08.315Z,11.95
2019-03-20T02:37:37.111Z,13.90
2019-03-20T02:40:04.895Z,13.38
2019-03-20T02:42:33.907Z,12.28
2019-03-20T02:45:03.004Z,13.85
2019-03-20T02:47:30.315Z,12.70
2019-03-20T02:49:59.401Z,13.62
2019-03-20T02:52:28.062Z,13.08
2019-03-20T02:54:56.268Z,13.22
2019-03-20T02:57:24.552Z,12.00
2019-03-20T02:59:53.341Z,11.85
2019-03-20T03:02:22.251Z,11.97
2019-03-20T03:04:50.890Z,12.47
2019-03-20T03:07:20.326Z,12.20
2019-03-20T03:09:48.798Z,11.03
2019-03-20T03:12:17.995Z,11.75
2019-03-20T03:14:46.475Z,12.70
2019-03-20T03:17:13.831Z,12.58
2019-03-20T03:19:45.074Z,11.65
2019-03-20T03:22:12.949Z,9.90
2019-03-20T03:24:40.910Z,11.95
2019-03-20T03:27:08.372Z,11.65
2019-03-20T03:29:36.993Z,11.80
2019-03-20T03:32:05.513Z,12.15
2019-03-20T03:34:33.399Z,11.18
2019-03-20T03:37:01.451Z,11.83
2019-03-20T03:39:33.683Z,11.55
2019-03-20T03:42:01.206Z,12.00
2019-03-20T03:44:29.182Z,11.55
2019-03-20T03:46:58.280Z,11.75
2019-03-20T03:49:27.066Z,12.10
2019-03-20T03:51:55.352Z,11.33
2019-03-20T03:54:24.180Z,10.90
2019-03-20T03:56:52.950Z,12.18
2019-03-20T03:59:21.487Z,10.65
2019-03-20T04:01:49.871Z,11.33
2019-03-20T04:04:18.270Z,10.55
2019-03-20T04:06:46.868Z,12.10
2019-03-20T04:09:14.914Z,12.40
2019-03-20T04:11:43.534Z,11.10
2019-03-20T04:14:11.674Z,11.40
2019-03-20T04:16:40.142Z,12.43
2019-03-20T04:19:08.128Z,10.98
2019-03-20T04:21:36.326Z,12.58
2019-03-20T04:24:05.136Z,10.48
2019-03-20T04:26:34.606Z,11.25
2019-03-20T04:29:03.293Z,10.48
2019-03-20T04:31:32.083Z,10.53
2019-03-20T04:34:00.338Z,10.32
2019-03-20T04:36:29.570Z,11.60
2019-03-20T04:38:57.503Z,9.45
2019-03-20T04:41:26.086Z,10.40
2019-03-20T04:43:54.363Z,10.30
2019-03-20T04:46:22.919Z,10.23
2019-03-20T04:48:50.254Z,11.53
2019-03-20T04:51:18.584Z,9.50
2019-03-20T04:53:47.157Z,10.53
2019-03-20T04:56:15.750Z,11.05
2019-03-20T04:58:44.288Z,10.05
2019-03-20T05:01:12.669Z,9.20
2019-03-20T05:03:41.305Z,9.10
2019-03-20T05:06:10.488Z,9.30
2019-03-20T05:08:39.114Z,8.83
2019-03-20T05:11:07.805Z,8.90
2019-03-20T05:13:36.123Z,9.48
2019-03-20T05:16:04.787Z,9.35
2019-03-20T05:18:33.410Z,10.25
2019-03-20T05:21:01.762Z,10.05
2019-03-20T05:23:30.331Z,9.30
2019-03-20T05:25:59.283Z,9.95
2019-03-20T05:28:28.145Z,10.45
2019-03-20T05:30:56.641Z,9.58
2019-03-20T05:33:25.639Z,9.50
2019-03-20T05:35:54.250Z,8.90
2019-03-20T05:38:22.708Z,8.23
2019-03-20T05:40:53.324Z,9.68
2019-03-20T05:43:20.992Z,8.60
2019-03-20T05:45:48.860Z,8.65
2019-03-20T05:48:16.956Z,8.73
2019-03-20T05:50:45.283Z,8.65
2019-03-20T05:53:13.937Z,8.73
2019-03-20T05:55:41.173Z,8.93
2019-03-20T05:58:12.715Z,8.80
2019-03-20T06:00:40.976Z,8.03
2019-03-20T06:03:09.258Z,8.18
2019-03-20T06:05:39.273Z,9.05
2019-03-20T06:08:07.014Z,8.53
2019-03-20T06:10:35.062Z,10.75
2019-03-20T06:13:03.626Z,9.15
2019-03-20T06:15:31.976Z,8.43
2019-03-20T06:18:00.963Z,9.35
2019-03-20T06:20:29.254Z,8.03
2019-03-20T06:22:57.207Z,8.20
2019-03-20T06:25:25.670Z,7.90
2019-03-20T06:27:54.271Z,8.13
2019-03-20T06:30:22.918Z,8.23
2019-03-20T06:32:51.162Z,9.00
2019-03-20T06:35:19.210Z,8.23
2019-03-20T06:37:47.731Z,7.90
2019-03-20T06:40:16.277Z,7.87
2019-03-20T06:42:44.976Z,7.67
2019-03-20T06:45:13.436Z,7.90
2019-03-20T06:47:41.847Z,7.75
2019-03-20T06:50:12.240Z,8.08
2019-03-20T06:52:40.646Z,7.35
2019-03-20T06:55:09.418Z,7.45
2019-03-20T06:57:37.548Z,8.13
2019-03-20T07:00:36.006Z,8.05
2019-03-20T07:03:07.311Z,7.50
2019-03-20T07:06:08.941Z,6.97
2019-03-20T07:08:50.400Z,6.80
2019-03-20T07:11:17.969Z,7.37
2019-03-20T07:13:46.926Z,6.95
2019-03-20T07:16:15.498Z,7.03
2019-03-20T07:18:43.811Z,6.75
2019-03-20T07:21:12.714Z,6.70
2019-03-20T07:23:45.848Z,6.90
2019-03-20T07:26:14.538Z,6.45
2019-03-20T07:28:43.122Z,6.90
2019-03-20T07:31:15.790Z,7.55
2019-03-20T07:33:42.048Z,6.33
2019-03-20T07:36:10.458Z,7.60
2019-03-20T07:38:39.015Z,7.45
2019-03-20T07:41:08.203Z,6.62
2019-03-20T07:43:37.186Z,6.20
2019-03-20T07:46:05.352Z,6.75
2019-03-20T07:48:34.147Z,6.72
2019-03-20T07:51:02.738Z,6.55
2019-03-20T07:53:31.067Z,6.60
2019-03-20T07:56:06.886Z,6.85
2019-03-20T07:58:33.841Z,6.90
2019-03-20T08:01:01.771Z,6.20
2019-03-20T08:03:30.242Z,6.15
2019-03-20T08:05:59.049Z,6.45
2019-03-20T08:08:26.858Z,6.83
2019-03-20T08:10:58.473Z,6.58
2019-03-20T08:13:25.751Z,5.90
2019-03-20T08:15:52.961Z,6.20
2019-03-20T08:18:22.786Z,6.78
2019-03-20T08:20:50.429Z,6.10
2019-03-20T08:23:18.701Z,6.60
2019-03-20T08:25:47.422Z,6.33
2019-03-20T08:28:15.865Z,5.78
2019-03-20T08:30:44.579Z,5.75
2019-03-20T08:33:13.183Z,6.62
2019-03-20T08:35:41.538Z,6.30
2019-03-20T08:38:17.683Z,6.62
2019-03-20T08:40:40.639Z,6.10
2019-03-20T08:43:10.568Z,6.12
2019-03-20T08:45:40.030Z,6.03
2019-03-20T08:48:09.476Z,6.00
2019-03-20T08:50:38.253Z,6.72
2019-03-20T08:53:08.157Z,6.15
2019-03-20T08:55:36.261Z,5.92
2019-03-20T08:58:04.406Z,6.75
2019-03-20T09:00:32.981Z,6.00
2019-03-20T09:03:00.925Z,6.67
2019-03-20T09:05:29.022Z,6.30
2019-03-20T09:08:00.066Z,6.58
2019-03-20T09:10:28.128Z,6.28
2019-03-20T09:12:56.382Z,6.53
2019-03-20T09:15:24.531Z,6.22
2019-03-20T09:17:52.873Z,5.80
2019-03-20T09:20:21.162Z,6.20
2019-03-20T09:22:57.922Z,6.75
2019-03-20T09:25:26.082Z,7.25
2019-03-20T09:27:54.145Z,6.30
2019-03-20T09:30:22.521Z,6.45
2019-03-20T09:32:50.803Z,6.22
2019-03-20T09:35:22.442Z,6.80
2019-03-20T09:37:52.420Z,7.33
2019-03-20T09:40:23.465Z,7.22
2019-03-20T09:42:52.040Z,6.47
2019-03-20T09:45:23.430Z,7.25
2019-03-20T09:47:50.586Z,6.95
2019-03-20T09:50:19.028Z,7.30
2019-03-20T09:52:49.995Z,7.05
2019-03-20T09:55:17.896Z,7.62
2019-03-20T09:57:52.815Z,8.35
2019-03-20T10:00:21.625Z,7.72
2019-03-20T10:02:50.554Z,8.10
2019-03-20T10:05:18.971Z,7.00
2019-03-20T10:07:53.143Z,7.62
2019-03-20T10:10:21.633Z,7.12
2019-03-20T10:12:50.554Z,7.65
2019-03-20T10:15:19.108Z,7.37
2019-03-20T10:17:48.723Z,7.60
2019-03-20T10:20:20.702Z,7.65
2019-03-20T10:22:48.849Z,7.27
2019-03-20T10:25:17.687Z,8.45
2019-03-20T10:27:46.150Z,7.65
2019-03-20T10:30:26.177Z,7.57
2019-03-20T10:32:54.272Z,7.03
2019-03-20T10:35:22.041Z,7.50
2019-03-20T10:37:49.954Z,7.30
2019-03-20T10:40:18.540Z,7.33
2019-03-20T10:42:51.442Z,6.53
2019-03-20T10:45:18.609Z,6.03
2019-03-20T10:47:47.095Z,5.30
2019-03-20T10:50:17.099Z,4.20
2019-03-20T10:52:45.944Z,3.10
2019-03-20T10:55:15.297Z,2.70
2019-03-20T10:57:43.363Z,2.40
2019-03-20T11:00:14.870Z,3.07
2019-03-20T11:02:43.214Z,2.87
2019-03-20T11:05:11.509Z,3.33
2019-03-20T11:07:45.900Z,3.00
2019-03-20T11:10:16.034Z,2.70
2019-03-20T11:12:44.212Z,2.70
2019-03-20T11:15:13.085Z,3.20
2019-03-20T11:17:46.240Z,3.17
2019-03-20T11:20:16.059Z,3.73
2019-03-20T11:22:44.206Z,3.37
2019-03-20T11:25:14.181Z,3.17
2019-03-20T11:27:42.344Z,3.00
2019-03-20T11:30:17.908Z,1.70
2019-03-20T11:32:46.594Z,1.20
2019-03-20T11:35:15.245Z,1.50
2019-03-20T11:37:43.870Z,1.50
2019-03-20T11:40:18.190Z,1.63
2019-03-20T11:42:46.763Z,2.10
2019-03-20T11:45:14.254Z,1.32
2019-03-20T11:47:42.899Z,1.73
2019-03-20T11:50:22.468Z,1.40
2019-03-20T11:52:50.206Z,1.60
2019-03-20T11:55:17.379Z,1.80
2019-03-20T11:57:44.713Z,1.47
2019-03-20T12:00:14.422Z,2.00
2019-03-20T12:02:48.422Z,1.80
2019-03-20T12:05:16.116Z,1.37
2019-03-20T12:07:43.631Z,1.50
2019-03-20T12:10:16.149Z,1.40
2019-03-20T12:12:50.806Z,1.50
2019-03-20T12:15:18.630Z,1.83
2019-03-20T12:17:46.156Z,1.73
2019-03-20T12:20:14.990Z,1.77
2019-03-20T12:22:42.961Z,2.20
2019-03-20T12:25:18.084Z,1.83
2019-03-20T12:27:46.129Z,1.70
2019-03-20T12:30:17.144Z,2.40
2019-03-20T12:32:45.194Z,1.80
2019-03-20T12:35:13.153Z,1.90
2019-03-20T12:37:43.566Z,1.67
2019-03-20T12:40:17.077Z,1.57
2019-03-20T12:42:44.122Z,1.70
2019-03-20T12:45:13.638Z,1.90
2019-03-20T12:47:47.202Z,1.90
2019-03-20T12:50:14.756Z,1.40
2019-03-20T12:52:42.355Z,1.77
2019-03-20T12:55:11.349Z,1.50
2019-03-20T12:57:39.487Z,1.43
2019-03-20T13:00:15.493Z,2.00
2019-03-20T13:02:43.968Z,1.40
2019-03-20T13:05:12.791Z,1.40
2019-03-20T13:07:40.723Z,1.40
2019-03-20T13:10:10.938Z,1.50
2019-03-20T13:12:41.298Z,1.70
2019-03-20T13:15:14.607Z,1.90
2019-03-20T13:17:42.058Z,1.80
2019-03-20T13:20:13.787Z,1.70
2019-03-20T13:22:49.532Z,1.80
2019-03-20T13:25:16.980Z,1.83
2019-03-20T13:27:45.054Z,1.30
2019-03-20T13:30:20.115Z,2.13
2019-03-20T13:32:47.483Z,1.77
2019-03-20T13:35:16.803Z,2.60
2019-03-20T13:37:44.406Z,2.63
2019-03-20T13:40:14.566Z,2.50
2019-03-20T13:42:42.002Z,2.53
2019-03-20T13:45:18.787Z,2.70
2019-03-20T13:47:46.562Z,2.60
2019-03-20T13:50:13.986Z,2.50
2019-03-20T13:52:41.608Z,2.50
2019-03-20T13:55:09.175Z,2.93
2019-03-20T13:57:36.607Z,2.87
2019-03-20T14:00:13.027Z,3.07
2019-03-20T14:02:40.218Z,2.90
2019-03-20T14:05:08.226Z,2.60
2019-03-20T14:07:35.822Z,3.17
2019-03-20T14:10:09.379Z,3.27
2019-03-20T14:12:37.150Z,3.13
2019-03-20T14:15:04.574Z,3.30
2019-03-20T14:17:31.826Z,3.00
2019-03-20T14:19:59.146Z,3.53
2019-03-20T14:22:29.556Z,3.53
2019-03-20T14:24:57.244Z,3.50
2019-03-20T14:27:24.526Z,3.40
2019-03-20T14:29:51.753Z,3.50
2019-03-20T14:32:18.833Z,3.77
2019-03-20T14:34:45.801Z,3.63
2019-03-20T14:37:18.687Z,3.07
2019-03-20T14:39:45.682Z,3.90
2019-03-20T14:42:12.647Z,4.30
2019-03-20T14:44:39.831Z,3.47
2019-03-20T14:47:07.062Z,4.67
2019-03-20T14:49:34.504Z,3.47
2019-03-20T14:52:02.869Z,3.40
2019-03-20T14:54:31.365Z,3.60
2019-03-20T14:57:01.399Z,3.60
2019-03-20T14:59:28.634Z,4.40
2019-03-20T15:01:56.445Z,4.80
2019-03-20T15:04:27.619Z,3.83
2019-03-20T15:06:55.813Z,4.13
2019-03-20T15:09:23.467Z,4.53
2019-03-20T15:11:50.890Z,4.27
2019-03-20T15:14:19.507Z,4.83
2019-03-20T15:16:47.705Z,4.20
2019-03-20T15:19:16.270Z,4.20
2019-03-20T15:21:44.547Z,4.30
2019-03-20T15:24:12.510Z,4.40
2019-03-20T15:26:41.199Z,4.87
2019-03-20T15:29:09.715Z,3.80
2019-03-20T15:31:38.261Z,4.03
2019-03-20T15:34:07.209Z,4.23
2019-03-20T15:36:36.438Z,4.20
2019-03-20T15:39:06.778Z,4.40
2019-03-20T15:41:35.395Z,4.27
2019-03-20T15:44:02.909Z,4.60
2019-03-20T15:46:33.265Z,3.10
2019-03-20T15:49:01.941Z,4.20
2019-03-20T15:51:30.322Z,3.90
2019-03-20T15:53:58.067Z,4.20
2019-03-20T15:56:26.646Z,4.00
2019-03-20T15:58:56.274Z,3.80
2019-03-20T16:01:24.959Z,4.10
2019-03-20T16:03:54.050Z,3.80
2019-03-20T16:06:21.585Z,4.10
2019-03-20T16:08:50.513Z,3.90
2019-03-20T16:11:17.767Z,3.63
2019-03-20T16:13:46.343Z,4.10
2019-03-20T16:16:18.376Z,2.90
2019-03-20T16:18:47.096Z,3.53
2019-03-20T16:21:15.909Z,3.57
2019-03-20T16:23:44.995Z,3.10
2019-03-20T16:26:12.543Z,3.70
2019-03-20T16:28:40.946Z,3.13
2019-03-20T16:31:10.122Z,2.80
2019-03-20T16:33:37.526Z,3.07
2019-03-20T16:36:08.789Z,3.50
2019-03-20T16:38:35.999Z,3.20
2019-03-20T16:41:04.431Z,2.83
2019-03-20T16:43:32.859Z,2.73
2019-03-20T16:46:01.415Z,2.80
2019-03-20T16:48:30.005Z,3.07
2019-03-20T16:50:58.351Z,4.00
2019-03-20T16:53:27.719Z,4.13
2019-03-20T16:55:56.220Z,3.73
2019-03-20T16:58:24.183Z,3.63
2019-03-20T17:00:52.455Z,3.50
2019-03-20T17:03:20.534Z,4.60
2019-03-20T17:05:49.285Z,3.97
2019-03-20T17:08:18.038Z,3.40
2019-03-20T17:10:46.338Z,3.80
2019-03-20T17:13:15.016Z,5.30
2019-03-20T17:15:43.939Z,5.30
2019-03-20T17:18:12.904Z,3.80
2019-03-20T17:20:41.593Z,3.97
2019-03-20T17:23:08.942Z,3.43
2019-03-20T17:25:37.226Z,3.17
2019-03-20T17:28:06.114Z,3.60
2019-03-20T17:30:35.741Z,3.20
2019-03-20T17:33:04.510Z,3.33
2019-03-20T17:35:33.403Z,3.00
2019-03-20T17:38:01.943Z,2.90
2019-03-20T17:40:30.394Z,3.63
2019-03-20T17:42:57.928Z,3.43
2019-03-20T17:45:26.577Z,3.57
2019-03-20T17:47:55.043Z,3.50
2019-03-20T17:50:23.868Z,3.40
2019-03-20T17:52:52.201Z,3.00
2019-03-20T17:55:20.537Z,3.20
2019-03-20T17:57:49.183Z,4.13
2019-03-20T18:00:23.443Z,3.50
2019-03-20T18:02:50.505Z,3.87
2019-03-20T18:05:18.367Z,4.83
2019-03-20T18:07:52.336Z,4.43
2019-03-20T18:10:19.927Z,4.10
2019-03-20T18:12:47.338Z,4.07
2019-03-20T18:15:18.586Z,4.40
2019-03-20T18:17:47.427Z,4.20
2019-03-20T18:20:14.641Z,4.37
2019-03-20T18:22:42.522Z,6.70
2019-03-20T18:25:10.088Z,6.00
2019-03-20T18:27:37.446Z,6.40
2019-03-20T18:30:08.854Z,7.13
2019-03-20T18:32:36.046Z,7.40
2019-03-20T18:35:03.772Z,8.58
2019-03-20T18:37:32.022Z,8.50
2019-03-20T18:39:59.038Z,8.33
2019-03-20T18:42:27.179Z,8.75
2019-03-20T18:44:55.943Z,8.13
2019-03-20T18:47:23.371Z,8.85
2019-03-20T18:49:51.592Z,8.83
2019-03-20T18:52:19.676Z,8.13
2019-03-20T18:54:48.087Z,9.03
2019-03-20T18:57:16.607Z,7.50
2019-03-20T18:59:45.135Z,7.58
2019-03-20T19:02:13.347Z,7.25
2019-03-20T19:04:41.647Z,7.15
2019-03-20T19:07:09.827Z,6.60
2019-03-20T19:09:38.403Z,6.47
2019-03-20T19:12:08.806Z,6.50
2019-03-20T19:14:37.088Z,6.78
2019-03-20T19:17:05.263Z,6.55
2019-03-20T19:19:34.151Z,7.30
2019-03-20T19:22:04.376Z,6.87
2019-03-20T19:24:32.561Z,6.40
2019-03-20T19:27:00.878Z,6.15
2019-03-20T19:29:28.997Z,6.53
2019-03-20T19:31:57.090Z,6.20
2019-03-20T19:34:25.181Z,5.67
2019-03-20T19:36:53.393Z,5.95
2019-03-20T19:39:21.974Z,5.65
2019-03-20T19:41:50.123Z,4.75
2019-03-20T19:44:18.342Z,5.20
2019-03-20T19:46:47.929Z,5.85
2019-03-20T19:49:16.115Z,5.17
2019-03-20T19:51:44.478Z,5.03
2019-03-20T19:54:12.538Z,5.33
2019-03-20T19:56:40.858Z,5.45
2019-03-20T19:59:07.803Z,5.70
2019-03-20T20:01:36.187Z,5.70
2019-03-20T20:04:04.649Z,5.85
2019-03-20T20:06:32.722Z,5.95
2019-03-20T20:09:01.139Z,5.30
2019-03-20T20:11:28.770Z,5.50
2019-03-20T20:13:56.834Z,5.70
2019-03-20T20:16:25.166Z,5.53
2019-03-20T20:18:52.326Z,5.40
2019-03-20T20:21:20.542Z,5.25
2019-03-20T20:23:48.819Z,5.25
2019-03-20T20:26:16.911Z,5.90
2019-03-20T20:28:47.273Z,4.80
2019-03-20T20:31:15.654Z,4.75
2019-03-20T20:33:43.806Z,4.92
2019-03-20T20:36:13.389Z,4.80
2019-03-20T20:38:41.685Z,4.50
2019-03-20T20:41:09.693Z,4.33
2019-03-20T20:43:39.769Z,4.40
2019-03-20T20:46:07.864Z,4.67
2019-03-20T20:48:36.402Z,5.05
2019-03-20T20:51:03.907Z,4.87
2019-03-20T20:53:32.181Z,4.92
2019-03-20T20:55:59.157Z,5.00
2019-03-20T20:58:27.233Z,5.15
2019-03-20T21:00:55.185Z,5.17
2019-03-20T21:03:23.397Z,5.53
2019-03-20T21:05:51.806Z,5.20
2019-03-20T21:08:19.862Z,6.22
2019-03-20T21:10:47.798Z,6.08
2019-03-20T21:13:15.794Z,5.80
2019-03-20T21:15:46.618Z,6.67
2019-03-20T21:18:57.013Z,6.28
2019-03-20T21:21:29.729Z,5.72
2019-03-20T21:24:21.402Z,6.45
2019-03-20T21:27:44.534Z,5.62
2019-03-20T21:30:47.407Z,5.78
2019-03-20T21:33:38.611Z,6.80
2019-03-20T21:36:55.335Z,5.37
2019-03-20T21:39:22.995Z,5.33
2019-03-20T21:42:33.627Z,5.70
2019-03-20T21:45:31.094Z,5.25
2019-03-20T21:47:58.686Z,6.28
2019-03-20T21:51:12.027Z,7.33
2019-03-20T21:54:24.871Z,7.37
2019-03-20T21:57:33.119Z,8.10
2019-03-20T22:00:55.668Z,8.33
2019-03-20T22:03:24.380Z,8.45
2019-03-20T22:06:36.475Z,7.60
2019-03-20T22:09:27.365Z,7.45
2019-03-20T22:12:38.870Z,7.83
2019-03-20T22:15:15.062Z,7.72
2019-03-20T22:18:12.775Z,7.83
2019-03-20T22:20:52.405Z,8.13
2019-03-20T22:24:36.396Z,9.00
2019-03-20T22:27:29.443Z,7.78
2019-03-20T22:29:58.106Z,6.80
2019-03-20T22:33:10.254Z,8.35
2019-03-20T22:35:45.713Z,7.25
2019-03-20T22:38:21.692Z,7.72
2019-03-20T22:41:29.188Z,7.45
2019-03-20T22:44:01.760Z,6.60
2019-03-20T22:47:10.780Z,7.85
2019-03-20T22:50:16.407Z,7.30
2019-03-20T22:53:29.050Z,7.65
2019-03-20T22:56:50.145Z,7.42
2019-03-20T22:59:19.357Z,7.85
2019-03-20T23:02:27.554Z,7.60
2019-03-20T23:04:57.683Z,8.15
2019-03-20T23:07:26.787Z,7.65
2019-03-20T23:09:55.894Z,8.08
2019-03-20T23:12:25.494Z,7.17
2019-03-20T23:14:54.826Z,7.85
2019-03-20T23:17:23.794Z,7.08
2019-03-20T23:19:53.686Z,7.35
2019-03-20T23:22:22.282Z,7.42
2019-03-20T23:24:51.318Z,7.33
2019-03-20T23:27:23.808Z,8.18
2019-03-20T23:29:52.734Z,8.40
2019-03-20T23:32:22.550Z,8.18
2019-03-20T23:34:51.498Z,7.35
2019-03-20T23:37:20.288Z,6.67
2019-03-20T23:39:48.871Z,7.08
2019-03-20T23:42:17.750Z,7.70
2019-03-20T23:44:46.292Z,6.60
2019-03-20T23:47:18.227Z,7.80
2019-03-20T23:49:46.936Z,7.90
2019-03-20T23:52:15.626Z,6.10
2019-03-20T23:54:47.182Z,7.20
2019-03-20T23:57:18.307Z,7.72
2019-03-20T23:59:47.621Z,6.95
